createdAt,value
2022-10-28T00:01:36.782Z,101104.66
2022-10-28T00:04:03.137Z,101108.72
2022-10-28T00:06:29.967Z,101108.72
2022-10-28T00:08:56.285Z,101112.19
2022-10-28T00:11:22.544Z,101101.41
2022-10-28T00:13:48.808Z,101103.34
2022-10-28T00:16:15.068Z,101113.16
2022-10-28T00:18:41.323Z,101114.44
2022-10-28T00:21:07.624Z,101111.75
2022-10-28T00:23:33.883Z,101110.75
2022-10-28T00:26:00.140Z,101100.88
2022-10-28T00:28:26.400Z,101101.81
2022-10-28T00:30:52.684Z,101095.47
2022-10-28T00:33:18.943Z,101110.47
2022-10-28T00:35:45.208Z,101099.47
2022-10-28T00:38:11.453Z,101103.09
2022-10-28T00:40:37.754Z,101100.66
2022-10-28T00:43:04.026Z,101098.81
2022-10-28T00:45:30.274Z,101095.25
2022-10-28T00:47:56.858Z,101094.06
2022-10-28T00:50:23.293Z,101095.56
2022-10-28T00:52:49.705Z,101095.13
2022-10-28T00:55:15.962Z,101093.94
2022-10-28T00:57:42.210Z,101091.03
2022-10-28T01:00:08.471Z,101089.97
2022-10-28T01:02:34.769Z,101088.00
2022-10-28T01:05:01.122Z,101086.94
2022-10-28T01:07:27.367Z,101089.63
2022-10-28T01:09:53.673Z,101072.53
2022-10-28T01:12:19.923Z,101078.06
2022-10-28T01:14:46.183Z,101076.13
2022-10-28T01:17:12.442Z,101072.44
2022-10-28T01:19:38.690Z,101071.34
2022-10-28T01:22:04.944Z,101068.47
2022-10-28T01:24:31.198Z,101069.31
2022-10-28T01:26:57.544Z,101069.84
2022-10-28T01:29:23.804Z,101065.09
2022-10-28T01:31:50.105Z,101069.41
2022-10-28T01:34:16.385Z,101064.00
2022-10-28T01:36:46.034Z,101066.56
2022-10-28T01:39:12.292Z,101060.31
2022-10-28T01:41:38.539Z,101054.91
2022-10-28T01:44:04.801Z,101056.44
2022-10-28T01:46:31.085Z,101076.09
2022-10-28T01:48:57.330Z,101070.47
2022-10-28T01:51:23.659Z,101070.47
2022-10-28T01:53:49.961Z,101072.22
2022-10-28T01:56:16.223Z,101061.63
2022-10-28T01:58:42.508Z,101064.97
2022-10-28T02:01:08.893Z,101073.91
2022-10-28T02:03:35.268Z,101078.69
2022-10-28T02:06:01.556Z,101077.81
2022-10-28T02:08:27.836Z,101077.59
2022-10-28T02:10:54.087Z,101065.72
2022-10-28T02:13:20.363Z,101071.97
2022-10-28T02:15:46.606Z,101066.56
2022-10-28T02:18:12.931Z,101062.91
2022-10-28T02:20:39.176Z,101063.31
2022-10-28T02:23:05.465Z,101060.94
2022-10-28T02:25:31.714Z,101057.03
2022-10-28T02:27:58.014Z,101060.81
2022-10-28T02:30:24.320Z,101062.91
2022-10-28T02:32:50.699Z,101056.53
2022-10-28T02:35:17.110Z,101055.53
2022-10-28T02:37:43.743Z,101060.22
2022-10-28T02:40:09.992Z,101063.63
2022-10-28T02:42:36.290Z,101072.63
2022-10-28T02:45:02.802Z,101060.41
2022-10-28T02:47:29.064Z,101055.78
2022-10-28T02:49:55.399Z,101056.63
2022-10-28T02:52:21.660Z,101046.81
2022-10-28T02:54:47.938Z,101050.38
2022-10-28T02:57:14.182Z,101052.31
2022-10-28T02:59:40.451Z,101054.41
2022-10-28T03:02:06.839Z,101047.91
2022-10-28T03:04:33.188Z,101048.66
2022-10-28T03:06:59.451Z,101046.94
2022-10-28T03:09:25.706Z,101053.41
2022-10-28T03:11:52.106Z,101057.31
2022-10-28T03:14:18.346Z,101058.47
2022-10-28T03:16:44.668Z,101057.72
2022-10-28T03:19:10.937Z,101057.72
2022-10-28T03:21:37.215Z,101046.94
2022-10-28T03:24:03.496Z,101051.72
2022-10-28T03:26:29.747Z,101053.31
2022-10-28T03:28:56.007Z,101053.19
2022-10-28T03:31:22.311Z,101043.94
2022-10-28T03:33:48.648Z,101041.88
2022-10-28T03:36:14.907Z,101030.47
2022-10-28T03:38:41.199Z,101040.47
2022-10-28T03:41:07.464Z,101040.47
2022-10-28T03:43:33.705Z,101044.91
2022-10-28T03:45:59.959Z,101045.09
2022-10-28T03:48:26.245Z,101035.28
2022-10-28T03:50:52.491Z,101040.91
2022-10-28T03:53:18.745Z,101045.44
2022-10-28T03:55:44.998Z,101035.75
2022-10-28T03:58:11.249Z,101045.56
2022-10-28T04:00:37.515Z,101048.47
2022-10-28T04:03:03.773Z,101043.09
2022-10-28T04:05:30.046Z,101043.84
2022-10-28T04:07:56.331Z,101028.59
2022-10-28T04:10:22.593Z,101037.91
2022-10-28T04:12:48.844Z,101035.09
2022-10-28T04:15:15.146Z,101023.88
2022-10-28T04:17:41.398Z,101031.03
2022-10-28T04:20:07.643Z,101029.28
2022-10-28T04:22:34.070Z,101039.13
2022-10-28T04:25:00.346Z,101036.63
2022-10-28T04:27:26.676Z,101036.41
2022-10-28T04:29:52.926Z,101041.59
2022-10-28T04:32:19.177Z,101043.53
2022-10-28T04:34:45.431Z,101051.63
2022-10-28T04:37:11.693Z,101040.06
2022-10-28T04:39:37.952Z,101040.94
2022-10-28T04:42:04.203Z,101037.72
2022-10-28T04:44:30.486Z,101027.78
2022-10-28T04:46:56.934Z,101031.22
2022-10-28T04:49:23.174Z,101028.00
2022-10-28T04:51:49.428Z,101029.53
2022-10-28T04:54:15.674Z,101027.78
2022-10-28T04:56:41.926Z,101023.59
2022-10-28T04:59:08.193Z,101023.38
2022-10-28T05:01:34.689Z,101014.41
2022-10-28T05:04:01.033Z,101010.97
2022-10-28T05:06:27.294Z,101001.03
2022-10-28T05:08:53.566Z,100994.78
2022-10-28T05:11:19.877Z,100997.34
2022-10-28T05:13:46.184Z,100993.78
2022-10-28T05:16:12.447Z,100991.44
2022-10-28T05:18:38.724Z,100999.31
2022-10-28T05:21:05.074Z,100996.72
2022-10-28T05:23:31.420Z,101005.78
2022-10-28T05:25:57.665Z,101011.19
2022-10-28T05:28:24.203Z,101010.66
2022-10-28T05:30:50.475Z,101015.19
2022-10-28T05:33:16.724Z,101022.75
2022-10-28T05:35:43.102Z,101025.47
2022-10-28T05:38:09.429Z,101017.66
2022-10-28T05:40:35.743Z,101018.97
2022-10-28T05:43:02.009Z,101012.94
2022-10-28T05:47:59.498Z,101020.81
2022-10-28T05:50:25.768Z,101019.50
2022-10-28T05:52:52.038Z,101014.88
2022-10-28T05:55:21.375Z,101021.03
2022-10-28T05:57:47.665Z,101022.88
2022-10-28T06:00:14.210Z,101020.28
2022-10-28T06:02:40.464Z,101025.22
2022-10-28T06:05:06.876Z,101029.34
2022-10-28T06:07:34.739Z,101023.53
2022-10-28T06:10:00.983Z,101025.00
2022-10-28T06:12:25.730Z,101029.63
2022-10-28T06:14:52.024Z,101022.44
2022-10-28T06:17:18.278Z,101026.94
2022-10-28T06:19:44.531Z,101026.75
2022-10-28T06:22:14.333Z,101030.63
2022-10-28T06:24:40.585Z,101032.56
2022-10-28T06:29:57.126Z,101030.28
2022-10-28T06:32:23.422Z,101028.25
2022-10-28T06:34:49.712Z,101030.19
2022-10-28T06:37:15.981Z,101030.19
2022-10-28T06:39:44.162Z,101021.97
2022-10-28T06:42:10.560Z,101031.47
2022-10-28T06:44:36.835Z,101026.91
2022-10-28T06:47:04.781Z,101037.28
2022-10-28T06:49:31.038Z,101037.91
2022-10-28T06:51:57.309Z,101050.19
2022-10-28T06:54:23.578Z,101041.66
2022-10-28T06:56:49.902Z,101050.09
2022-10-28T06:59:16.299Z,101046.94
2022-10-28T07:01:42.620Z,101040.31
2022-10-28T07:04:08.932Z,101054.00
2022-10-28T07:06:35.198Z,101056.59
2022-10-28T07:09:01.512Z,101049.66
2022-10-28T07:11:27.893Z,101048.59
2022-10-28T07:13:54.227Z,101047.16
2022-10-28T07:16:20.559Z,101047.09
2022-10-28T07:18:46.807Z,101051.28
2022-10-28T07:21:14.413Z,101045.44
2022-10-28T07:23:40.662Z,101051.38
2022-10-28T07:26:07.004Z,101063.81
2022-10-28T07:28:33.263Z,101050.41
2022-10-28T07:30:59.690Z,101061.31
2022-10-28T07:33:26.002Z,101070.72
2022-10-28T07:35:52.272Z,101072.47
2022-10-28T07:38:18.569Z,101069.97
2022-10-28T07:40:44.825Z,101070.25
2022-10-28T07:43:11.144Z,101066.44
2022-10-28T07:45:37.417Z,101061.78
2022-10-28T07:48:03.714Z,101070.03
2022-10-28T07:50:30.053Z,101063.50
2022-10-28T07:52:56.713Z,101083.44
2022-10-28T07:55:23.217Z,101076.06
2022-10-28T07:57:49.474Z,101087.75
2022-10-28T08:00:15.962Z,101077.78
2022-10-28T08:02:42.420Z,101077.66
2022-10-28T08:05:08.740Z,101072.50
2022-10-28T08:07:38.439Z,101085.50
2022-10-28T08:10:05.306Z,101075.41
2022-10-28T08:12:31.568Z,101082.69
2022-10-28T08:14:57.846Z,101083.06
2022-10-28T08:17:26.467Z,101078.03
2022-10-28T08:19:52.723Z,101085.50
2022-10-28T08:22:18.993Z,101091.66
2022-10-28T08:24:45.259Z,101075.78
2022-10-28T08:27:11.548Z,101069.97
2022-10-28T08:29:37.850Z,101078.72
2022-10-28T08:32:04.112Z,101062.69
2022-10-28T08:34:31.243Z,101066.75
2022-10-28T08:36:57.685Z,101064.56
2022-10-28T08:39:24.121Z,101065.91
2022-10-28T08:41:51.817Z,101067.31
2022-10-28T08:44:18.101Z,101066.91
2022-10-28T08:46:44.387Z,101066.19
2022-10-28T08:49:10.798Z,101067.03
2022-10-28T08:51:37.053Z,101068.19
2022-10-28T08:54:03.324Z,101079.66
2022-10-28T08:56:29.596Z,101076.31
2022-10-28T08:58:58.952Z,101070.91
2022-10-28T09:01:25.316Z,101076.56
2022-10-28T09:03:51.698Z,101072.16
2022-10-28T09:06:18.032Z,101077.78
2022-10-28T09:08:44.294Z,101082.25
2022-10-28T09:11:10.579Z,101077.06
2022-10-28T09:13:36.899Z,101073.84
2022-10-28T09:16:03.160Z,101067.44
2022-10-28T09:18:29.434Z,101059.53
2022-10-28T09:20:55.714Z,101057.03
2022-10-28T09:23:22.375Z,101050.59
2022-10-28T09:25:48.801Z,101058.88
2022-10-28T09:28:15.184Z,101062.97
2022-10-28T09:30:41.458Z,101065.34
2022-10-28T09:33:07.737Z,101052.47
2022-10-28T09:35:34.156Z,101055.66
2022-10-28T09:38:00.452Z,101056.00
2022-10-28T09:40:26.748Z,101053.81
2022-10-28T09:42:53.010Z,101047.06
2022-10-28T09:45:19.268Z,101064.56
2022-10-28T09:47:45.529Z,101067.13
2022-10-28T09:50:11.929Z,101065.25
2022-10-28T09:52:38.200Z,101063.50
2022-10-28T09:55:04.464Z,101056.75
2022-10-28T09:57:30.744Z,101049.78
2022-10-28T09:59:57.036Z,101036.44
2022-10-28T10:02:23.378Z,101041.06
2022-10-28T10:04:50.806Z,101030.72
2022-10-28T10:07:17.072Z,101024.44
2022-10-28T10:09:43.373Z,101031.56
2022-10-28T10:12:09.632Z,101030.72
2022-10-28T10:14:35.908Z,101024.53
2022-10-28T10:17:02.191Z,101016.28
2022-10-28T10:19:28.499Z,101010.75
2022-10-28T10:21:55.297Z,101005.06
2022-10-28T10:24:21.586Z,101011.28
2022-10-28T10:26:47.836Z,101015.59
2022-10-28T10:29:14.115Z,101005.88
2022-10-28T10:31:40.386Z,101004.44
2022-10-28T10:34:06.653Z,101011.97
2022-10-28T10:36:33.627Z,100999.75
2022-10-28T10:38:59.890Z,100997.09
2022-10-28T10:41:26.165Z,100994.53
2022-10-28T10:43:52.438Z,100990.44
2022-10-28T10:46:18.711Z,100994.44
2022-10-28T10:48:45.130Z,100982.72
2022-10-28T10:51:11.412Z,100978.81
2022-10-28T10:53:37.715Z,100976.94
2022-10-28T10:56:04.001Z,100971.38
2022-10-28T10:58:30.273Z,100975.28
2022-10-28T11:00:56.533Z,100964.31
2022-10-28T11:03:22.839Z,100962.31
2022-10-28T11:05:55.089Z,100959.91
2022-10-28T11:08:33.018Z,100967.28
2022-10-28T11:10:59.270Z,100963.03
2022-10-28T11:13:25.535Z,100946.84
2022-10-28T11:15:51.798Z,100949.22
2022-10-28T11:18:20.612Z,100942.75
2022-10-28T11:20:46.999Z,100939.75
2022-10-28T11:23:13.259Z,100933.34
2022-10-28T11:25:39.566Z,100938.28
2022-10-28T11:28:05.825Z,100932.06
2022-10-28T11:30:32.085Z,100925.44
2022-10-28T11:33:14.785Z,100927.28
2022-10-28T11:35:44.803Z,100919.91
2022-10-28T11:38:11.116Z,100916.75
2022-10-28T11:40:37.380Z,100915.91
2022-10-28T11:43:03.648Z,100908.34
2022-10-28T11:45:29.923Z,100907.47
2022-10-28T11:47:56.744Z,100910.63
2022-10-28T11:50:23.080Z,100904.53
2022-10-28T11:52:49.367Z,100902.41
2022-10-28T11:55:15.742Z,100900.28
2022-10-28T11:57:42.292Z,100893.81
2022-10-28T12:00:08.583Z,100902.41
2022-10-28T12:02:35.219Z,100893.56
2022-10-28T12:05:01.522Z,100898.84
2022-10-28T12:07:27.802Z,100883.94
2022-10-28T12:09:54.098Z,100881.25
2022-10-28T12:12:20.554Z,100880.25
2022-10-28T12:14:46.913Z,100883.25
2022-10-28T12:17:17.737Z,100886.25
2022-10-28T12:19:44.065Z,100882.25
2022-10-28T12:22:10.362Z,100884.06
2022-10-28T12:24:36.778Z,100882.19
2022-10-28T12:27:03.306Z,100877.63
2022-10-28T12:29:30.008Z,100873.06
2022-10-28T12:31:56.342Z,100865.34
2022-10-28T12:34:22.811Z,100864.06
2022-10-28T12:36:49.118Z,100863.63
2022-10-28T12:39:15.892Z,100862.78
2022-10-28T12:44:13.318Z,100855.75
2022-10-28T12:46:39.650Z,100859.38
2022-10-28T12:49:05.972Z,100851.63
2022-10-28T12:51:32.332Z,100863.66
2022-10-28T12:53:58.627Z,100861.03
2022-10-28T12:56:24.920Z,100856.47
2022-10-28T12:58:51.279Z,100854.38
2022-10-28T13:01:17.700Z,100855.81
2022-10-28T13:03:44.078Z,100854.81
2022-10-28T13:06:10.349Z,100850.66
2022-10-28T13:08:36.666Z,100854.38
2022-10-28T13:11:02.932Z,100845.81
2022-10-28T13:13:29.243Z,100853.66
2022-10-28T13:15:56.010Z,100849.66
2022-10-28T13:18:22.388Z,100859.22
2022-10-28T13:20:48.655Z,100849.94
2022-10-28T13:23:14.930Z,100849.38
2022-10-28T13:25:41.195Z,100848.94
2022-10-28T13:28:08.554Z,100851.38
2022-10-28T13:30:35.272Z,100841.94
2022-10-28T13:33:01.547Z,100851.22
2022-10-28T13:35:27.846Z,100842.53
2022-10-28T13:37:54.495Z,100846.22
2022-10-28T13:40:21.218Z,100844.66
2022-10-28T13:42:47.555Z,100842.81
2022-10-28T13:45:18.001Z,100836.50
2022-10-28T13:47:44.270Z,100846.25
2022-10-28T13:50:11.820Z,100841.94
2022-10-28T13:52:38.121Z,100846.66
2022-10-28T13:55:04.389Z,100844.50
2022-10-28T13:57:31.117Z,100858.22
2022-10-28T13:59:57.473Z,100849.94
2022-10-28T14:02:39.425Z,100843.09
2022-10-28T14:05:06.163Z,100850.97
2022-10-28T14:07:32.454Z,100847.38
2022-10-28T14:09:58.722Z,100853.53
2022-10-28T14:12:25.030Z,100857.38
2022-10-28T14:14:51.281Z,100850.81
2022-10-28T14:17:17.547Z,100844.81
2022-10-28T14:19:43.810Z,100847.09
2022-10-28T14:22:10.214Z,100848.22
2022-10-28T14:24:36.533Z,100848.78
2022-10-28T14:27:02.844Z,100852.22
2022-10-28T14:29:29.863Z,100846.09
2022-10-28T14:31:56.049Z,100843.97
2022-10-28T14:34:22.301Z,100849.94
2022-10-28T14:36:48.893Z,100853.94
2022-10-28T14:39:15.145Z,100844.34
2022-10-28T14:41:41.506Z,100843.94
2022-10-28T14:44:11.970Z,100850.47
2022-10-28T14:46:38.230Z,100855.19
2022-10-28T14:49:04.527Z,100845.31
2022-10-28T14:51:30.803Z,100849.59
2022-10-28T14:53:57.588Z,100851.25
2022-10-28T14:58:55.064Z,100844.13
2022-10-28T15:01:21.493Z,100839.84
2022-10-28T15:03:47.862Z,100837.78
2022-10-28T15:06:14.127Z,100846.09
2022-10-28T15:08:40.404Z,100835.81
2022-10-28T15:11:06.662Z,100841.09
2022-10-28T15:13:32.936Z,100844.47
2022-10-28T15:16:02.189Z,100842.38
2022-10-28T15:18:31.041Z,100842.66
2022-10-28T15:20:57.289Z,100844.09
2022-10-28T15:23:23.642Z,100843.09
2022-10-28T15:25:50.018Z,100844.66
2022-10-28T15:28:16.277Z,100832.38
2022-10-28T15:30:46.299Z,100831.94
2022-10-28T15:33:13.201Z,100831.53
2022-10-28T15:35:39.523Z,100835.38
2022-10-28T15:38:05.805Z,100836.81
2022-10-28T15:40:32.065Z,100837.78
2022-10-28T15:42:58.425Z,100837.47
2022-10-28T15:45:24.755Z,100839.22
2022-10-28T15:47:51.022Z,100832.34
2022-10-28T15:50:17.308Z,100837.47
2022-10-28T15:52:43.584Z,100837.34
2022-10-28T15:55:09.837Z,100830.91
2022-10-28T15:57:36.109Z,100832.94
2022-10-28T16:00:02.452Z,100830.06
2022-10-28T16:02:28.928Z,100831.81
2022-10-28T16:04:55.501Z,100827.66
2022-10-28T16:07:21.766Z,100823.38
2022-10-28T16:09:48.045Z,100826.91
2022-10-28T16:12:14.299Z,100830.66
2022-10-28T16:14:40.637Z,100829.34
2022-10-28T16:17:07.023Z,100836.06
2022-10-28T16:19:33.443Z,100833.06
2022-10-28T16:21:59.711Z,100833.47
2022-10-28T16:24:25.972Z,100832.63
2022-10-28T16:26:52.239Z,100830.91
2022-10-28T16:29:18.492Z,100825.75
2022-10-28T16:31:44.745Z,100832.63
2022-10-28T16:34:11.335Z,100834.34
2022-10-28T16:36:37.585Z,100829.19
2022-10-28T16:39:03.993Z,100835.59
2022-10-28T16:41:30.258Z,100833.59
2022-10-28T16:43:56.648Z,100837.31
2022-10-28T16:46:22.956Z,100836.31
2022-10-28T16:48:49.347Z,100840.28
2022-10-28T16:51:16.406Z,100840.88
2022-10-28T16:53:46.888Z,100837.16
2022-10-28T16:56:14.904Z,100835.47
2022-10-28T16:58:42.476Z,100827.03
2022-10-28T17:01:09.175Z,100834.88
2022-10-28T17:03:35.621Z,100836.84
2022-10-28T17:06:01.894Z,100841.59
2022-10-28T17:08:56.585Z,100838.88
2022-10-28T17:11:14.415Z,100835.44
2022-10-28T17:13:40.670Z,100839.13
2022-10-28T17:16:07.086Z,100835.44
2022-10-28T17:18:33.368Z,100844.53
2022-10-28T17:21:00.597Z,100838.28
2022-10-28T17:23:26.900Z,100833.56
2022-10-28T17:25:53.165Z,100844.53
2022-10-28T17:28:19.440Z,100834.28
2022-10-28T17:30:45.698Z,100841.94
2022-10-28T17:33:11.953Z,100848.81
2022-10-28T17:35:38.215Z,100847.53
2022-10-28T17:38:04.470Z,100850.91
2022-10-28T17:40:32.018Z,100852.78
2022-10-28T17:42:58.294Z,100846.78
2022-10-28T17:45:24.551Z,100844.19
2022-10-28T17:47:50.812Z,100852.44
2022-10-28T17:50:17.151Z,100853.91
2022-10-28T17:52:43.423Z,100855.16
2022-10-28T17:55:09.753Z,100850.16
2022-10-28T17:57:36.021Z,100846.31
2022-10-28T18:00:02.298Z,100845.00
2022-10-28T18:02:28.856Z,100851.03
2022-10-28T18:04:55.173Z,100849.91
2022-10-28T18:07:21.465Z,100846.72
2022-10-28T18:09:47.718Z,100850.44
2022-10-28T18:12:14.016Z,100850.44
2022-10-28T18:14:40.282Z,100851.44
2022-10-28T18:17:06.590Z,100838.13
2022-10-28T18:19:32.950Z,100850.69
2022-10-28T18:21:59.207Z,100835.53
2022-10-28T18:24:26.142Z,100834.56
2022-10-28T18:26:52.715Z,100827.81
2022-10-28T18:29:18.977Z,100831.97
2022-10-28T18:31:45.272Z,100836.28
2022-10-28T18:34:13.808Z,100829.44
2022-10-28T18:36:40.087Z,100823.84
2022-10-28T18:39:07.101Z,100825.59
2022-10-28T18:41:34.378Z,100821.03
2022-10-28T18:44:00.684Z,100822.28
2022-10-28T18:46:26.964Z,100832.16
2022-10-28T18:48:56.692Z,100815.00
2022-10-28T18:51:23.108Z,100826.56
2022-10-28T18:53:49.368Z,100830.72
2022-10-28T18:56:15.631Z,100818.44
2022-10-28T18:58:41.913Z,100830.00
2022-10-28T19:01:08.258Z,100831.97
2022-10-28T19:03:34.642Z,100835.81
2022-10-28T19:06:00.897Z,100826.00
2022-10-28T19:08:27.156Z,100822.41
2022-10-28T19:10:53.446Z,100820.72
2022-10-28T19:13:19.700Z,100824.41
2022-10-28T19:15:46.121Z,100814.69
2022-10-28T19:18:14.219Z,100821.72
2022-10-28T19:20:43.181Z,100820.25
2022-10-28T19:23:09.487Z,100813.72
2022-10-28T19:25:35.791Z,100812.13
2022-10-28T19:28:02.062Z,100812.97
2022-10-28T19:30:28.338Z,100811.28
2022-10-28T19:32:54.942Z,100818.53
2022-10-28T19:35:21.427Z,100822.38
2022-10-28T19:37:47.694Z,100818.69
2022-10-28T19:40:13.952Z,100824.81
2022-10-28T19:42:40.354Z,100824.09
2022-10-28T19:45:06.640Z,100824.34
2022-10-28T19:47:33.062Z,100826.88
2022-10-28T19:49:59.319Z,100829.59
2022-10-28T19:52:25.581Z,100832.63
2022-10-28T19:54:51.838Z,100840.75
2022-10-28T19:57:18.104Z,100839.66
2022-10-28T19:59:44.459Z,100842.50
2022-10-28T20:02:11.113Z,100847.66
2022-10-28T20:04:37.514Z,100843.25
2022-10-28T20:07:03.787Z,100841.63
2022-10-28T20:09:30.054Z,100845.06
2022-10-28T20:11:56.322Z,100851.13
2022-10-28T20:14:22.654Z,100851.84
2022-10-28T20:16:49.188Z,100853.72
2022-10-28T20:19:15.452Z,100848.75
2022-10-28T20:21:41.827Z,100854.44
2022-10-28T20:24:08.104Z,100859.59
2022-10-28T20:26:34.410Z,100863.50
2022-10-28T20:29:03.828Z,100858.50
2022-10-28T20:34:20.794Z,100858.50
2022-10-28T20:36:48.345Z,100858.00
2022-10-28T20:39:15.178Z,100853.59
2022-10-28T20:41:41.463Z,100863.69
2022-10-28T20:44:07.726Z,100851.53
2022-10-28T20:46:33.991Z,100864.66
2022-10-28T20:49:00.899Z,100870.09
2022-10-28T20:51:27.225Z,100859.25
2022-10-28T20:53:53.500Z,100860.13
2022-10-28T20:56:19.937Z,100864.53
2022-10-28T20:58:46.204Z,100868.09
2022-10-28T21:01:12.533Z,100869.56
2022-10-28T21:03:40.902Z,100867.84
2022-10-28T21:06:07.213Z,100875.09
2022-10-28T21:08:33.539Z,100877.22
2022-10-28T21:10:59.804Z,100881.66
2022-10-28T21:13:26.066Z,100877.34
2022-10-28T21:15:56.506Z,100881.91
2022-10-28T21:18:24.053Z,100873.19
2022-10-28T21:20:50.370Z,100877.75
2022-10-28T21:23:16.659Z,100877.41
2022-10-28T21:25:42.922Z,100873.00
2022-10-28T21:28:09.186Z,100874.47
2022-10-28T21:30:35.456Z,100872.78
2022-10-28T21:33:01.725Z,100879.78
2022-10-28T21:35:27.992Z,100873.28
2022-10-28T21:37:54.544Z,100885.38
2022-10-28T21:40:20.952Z,100876.91
2022-10-28T21:42:47.220Z,100880.09
2022-10-28T21:45:14.096Z,100894.34
2022-10-28T21:47:41.357Z,100890.09
2022-10-28T21:50:07.605Z,100882.94
2022-10-28T21:52:33.881Z,100889.94
2022-10-28T21:55:05.894Z,100876.19
2022-10-28T21:57:41.247Z,100891.81
2022-10-28T22:00:07.555Z,100884.53
2022-10-28T22:02:33.963Z,100880.41
2022-10-28T22:05:00.316Z,100880.50
2022-10-28T22:07:26.577Z,100890.72
2022-10-28T22:09:52.840Z,100885.31
2022-10-28T22:12:19.118Z,100896.88
2022-10-28T22:14:45.515Z,100899.84
2022-10-28T22:17:11.773Z,100902.81
2022-10-28T22:19:38.058Z,100901.81
2022-10-28T22:22:04.321Z,100902.66
2022-10-28T22:24:30.582Z,100902.06
2022-10-28T22:26:56.859Z,100903.88
2022-10-28T22:29:23.125Z,100897.78
2022-10-28T22:31:49.456Z,100899.47
2022-10-28T22:34:15.710Z,100894.09
2022-10-28T22:36:43.577Z,100891.28
2022-10-28T22:39:09.842Z,100900.34
2022-10-28T22:41:36.153Z,100906.03
2022-10-28T22:44:02.441Z,100897.91
2022-10-28T22:46:28.709Z,100903.06
2022-10-28T22:48:54.969Z,100905.03
2022-10-28T22:51:21.223Z,100907.25
2022-10-28T22:53:47.480Z,100901.84
2022-10-28T22:56:13.733Z,100897.31
2022-10-28T22:58:40.086Z,100904.31
2022-10-28T23:01:06.386Z,100909.50
2022-10-28T23:03:32.664Z,100916.88
2022-10-28T23:05:58.939Z,100914.16
2022-10-28T23:08:25.200Z,100908.88
2022-10-28T23:10:51.458Z,100910.72
2022-10-28T23:13:17.715Z,100900.75
2022-10-28T23:15:44.131Z,100900.53
2022-10-28T23:18:10.380Z,100903.34
2022-10-28T23:20:37.119Z,100907.97
2022-10-28T23:23:03.375Z,100905.16
2022-10-28T23:25:29.808Z,100918.31
2022-10-28T23:27:56.242Z,100927.53
2022-10-28T23:30:22.681Z,100933.31
2022-10-28T23:32:50.809Z,100916.34
2022-10-28T23:35:17.061Z,100924.81
2022-10-28T23:37:43.380Z,100933.13
2022-10-28T23:42:41.608Z,100926.41
2022-10-28T23:45:09.400Z,100939.66
2022-10-28T23:47:35.664Z,100927.88
2022-10-28T23:50:02.022Z,100931.19
2022-10-28T23:52:28.564Z,100929.84
2022-10-28T23:54:54.859Z,100931.44
2022-10-28T23:57:21.154Z,100936.75
2022-10-28T23:59:47.404Z,100930.59
